Time;durP1;ratioP1;P1;durP2;ratioP2;P2;SDS_P1;SDS_P2;PMS_P1;PMS_P2;Temp;Humidity;BMP_temperature;BMP_pressure;BME280_temperature;BME280_humidity;BME280_pressure;Samples;Min_cycle;Max_cycle;Signal;HPM_P1;HPM_P2
2022/05/16 00:01:05;;;;;;;;;;;16.90;1.00;;;;;;10330111;28;84874;-49
2022/05/16 00:06:06;;;;;;;;;;;16.90;1.00;;;;;;10317927;28;84738;-48
2022/05/16 00:11:06;;;;;;;;;;;16.80;1.00;;;;;;10331322;28;85256;-54
2022/05/16 00:16:07;;;;;;;;;;;16.70;1.00;;;;;;10331425;28;84118;-47
2022/05/16 00:21:07;;;;;;;;;;;16.70;1.00;;;;;;10307437;28;86883;-48
2022/05/16 00:26:08;;;;;;;;;;;16.60;1.00;;;;;;10290476;28;84909;-47
2022/05/16 00:31:09;;;;;;;;;;;16.60;1.00;;;;;;10289233;28;84990;-47
2022/05/16 00:36:09;;;;;;;;;;;16.50;1.00;;;;;;10290024;28;84488;-47
2022/05/16 00:41:10;;;;;;;;;;;16.50;1.00;;;;;;10288100;28;84600;-54
2022/05/16 00:46:11;;;;;;;;;;;16.40;1.00;;;;;;10290787;28;85608;-49
2022/05/16 00:51:24;;;;;;;;;;;16.40;1.00;;;;;;10288827;28;84669;-46
2022/05/16 00:56:26;;;;;;;;;;;16.30;1.00;;;;;;10284888;28;85838;-49
2022/05/16 01:06:45;;;;;;;;;;;16.20;1.00;;;;;;10300834;28;84987;-52
2022/05/16 01:11:46;;;;;;;;;;;16.20;1.00;;;;;;10321498;28;86416;-50
2022/05/16 01:16:46;;;;;;;;;;;16.10;1.00;;;;;;10288513;28;84065;-47
2022/05/16 01:21:47;;;;;;;;;;;16.10;1.00;;;;;;10248831;28;84676;-50
2022/05/16 01:26:49;;;;;;;;;;;16.00;1.00;;;;;;10272141;28;85222;-49
2022/05/16 01:31:49;;;;;;;;;;;15.90;1.00;;;;;;10284245;28;85066;-48
2022/05/16 01:36:50;;;;;;;;;;;16.00;1.00;;;;;;10293558;28;84122;-49
2022/05/16 01:41:50;;;;;;;;;;;15.90;1.00;;;;;;10327885;28;84172;-47
2022/05/16 01:46:51;;;;;;;;;;;15.80;1.00;;;;;;10328464;28;85411;-47
2022/05/16 01:51:51;;;;;;;;;;;15.80;1.00;;;;;;10260041;28;85259;-55
2022/05/16 01:56:52;;;;;;;;;;;15.70;1.00;;;;;;10247069;28;84193;-52
2022/05/16 02:01:52;;;;;;;;;;;15.60;1.00;;;;;;10280432;28;84846;-48
2022/05/16 02:06:53;;;;;;;;;;;15.60;1.00;;;;;;10257676;28;84227;-47
2022/05/16 02:11:53;;;;;;;;;;;15.50;1.00;;;;;;10316467;28;84899;-47
2022/05/16 02:16:54;;;;;;;;;;;15.50;1.00;;;;;;10297592;28;85556;-46
2022/05/16 02:27:16;;;;;;;;;;;15.40;1.00;;;;;;10286699;28;85010;-47
2022/05/16 02:32:16;;;;;;;;;;;15.40;1.00;;;;;;10246300;28;85501;-48
2022/05/16 02:37:17;;;;;;;;;;;15.40;1.00;;;;;;10286774;28;84090;-47
2022/05/16 02:42:18;;;;;;;;;;;15.40;1.00;;;;;;10245371;28;84351;-49
2022/05/16 02:47:19;;;;;;;;;;;15.30;1.00;;;;;;10244754;28;84933;-52
2022/05/16 02:52:20;;;;;;;;;;;15.30;1.00;;;;;;10276525;28;84819;-46
2022/05/16 02:57:20;;;;;;;;;;;15.20;1.00;;;;;;10305724;28;84393;-47
2022/05/16 03:02:21;;;;;;;;;;;15.20;1.00;;;;;;10326076;28;84808;-52
2022/05/16 03:07:22;;;;;;;;;;;15.20;1.00;;;;;;10310354;28;84151;-48
2022/05/16 03:12:22;;;;;;;;;;;15.20;1.00;;;;;;10298028;28;84756;-45
2022/05/16 03:17:23;;;;;;;;;;;15.20;1.00;;;;;;10307584;28;84897;-47
2022/05/16 03:22:24;;;;;;;;;;;15.10;1.00;;;;;;10309700;28;84238;-51
2022/05/16 03:27:25;;;;;;;;;;;15.00;1.00;;;;;;10337291;28;84098;-49
2022/05/16 03:32:26;;;;;;;;;;;15.00;1.00;;;;;;10315685;28;85354;-47
2022/05/16 03:37:26;;;;;;;;;;;15.10;1.00;;;;;;10293654;28;84771;-52
2022/05/16 03:42:27;;;;;;;;;;;15.00;1.00;;;;;;10296136;28;88991;-48
2022/05/16 03:47:27;;;;;;;;;;;15.00;1.00;;;;;;10280562;28;84864;-47
2022/05/16 03:52:28;;;;;;;;;;;14.90;1.00;;;;;;10292130;28;84153;-48
2022/05/16 03:57:28;;;;;;;;;;;14.90;1.00;;;;;;10318105;28;84246;-46
2022/05/16 04:02:29;;;;;;;;;;;14.90;1.00;;;;;;10334099;28;84956;-47
2022/05/16 04:07:30;;;;;;;;;;;14.90;1.00;;;;;;10292925;28;84382;-46
2022/05/16 04:12:31;;;;;;;;;;;14.90;1.00;;;;;;10320448;28;85329;-47
2022/05/16 04:17:32;;;;;;;;;;;15.00;1.00;;;;;;10295308;28;84107;-44
2022/05/16 04:22:33;;;;;;;;;;;15.00;1.00;;;;;;10297925;28;84795;-51
2022/05/16 04:27:34;;;;;;;;;;;15.00;1.00;;;;;;10290787;28;84801;-47
2022/05/16 04:32:35;;;;;;;;;;;15.10;1.00;;;;;;10289346;28;84026;-47
2022/05/16 04:37:36;;;;;;;;;;;15.10;1.00;;;;;;10270554;28;84720;-52
2022/05/16 04:42:43;;;;;;;;;;;15.20;1.00;;;;;;10288419;28;84985;-48
2022/05/16 04:47:47;;;;;;;;;;;15.20;1.00;;;;;;10281001;22;85560;-46
2022/05/16 04:52:47;;;;;;;;;;;15.30;1.00;;;;;;10226672;28;84221;-45
2022/05/16 04:57:48;;;;;;;;;;;15.40;1.00;;;;;;10211859;28;84313;-49
2022/05/16 05:02:48;;;;;;;;;;;15.60;1.00;;;;;;10205278;28;84371;-47
2022/05/16 05:07:49;;;;;;;;;;;15.70;1.00;;;;;;10224326;28;84742;-51
2022/05/16 05:18:09;;;;;;;;;;;16.00;1.00;;;;;;10223558;28;85329;-47
2022/05/16 05:23:09;;;;;;;;;;;16.10;1.00;;;;;;10205642;28;84802;-47
2022/05/16 05:28:10;;;;;;;;;;;16.20;1.00;;;;;;10191324;28;85856;-51
2022/05/16 05:33:11;;;;;;;;;;;16.30;1.00;;;;;;10213910;28;84853;-56
2022/05/16 05:38:11;;;;;;;;;;;16.40;1.00;;;;;;10210429;28;84271;-66
2022/05/16 05:43:12;;;;;;;;;;;16.50;1.00;;;;;;10189379;28;86128;-57
2022/05/16 05:48:13;;;;;;;;;;;16.60;1.00;;;;;;10175724;28;86189;-54
2022/05/16 05:53:13;;;;;;;;;;;16.80;1.00;;;;;;10196945;28;84839;-58
2022/05/16 05:58:14;;;;;;;;;;;17.00;1.00;;;;;;10191398;28;84309;-45
2022/05/16 06:03:15;;;;;;;;;;;17.20;99.90;;;;;;10210215;28;84908;-55
2022/05/16 06:08:15;;;;;;;;;;;17.30;99.90;;;;;;10189433;28;85637;-51
2022/05/16 06:13:17;;;;;;;;;;;17.60;99.90;;;;;;10189001;28;85819;-54
2022/05/16 06:18:18;;;;;;;;;;;17.90;99.90;;;;;;10218201;28;84919;-56
2022/05/16 06:23:18;;;;;;;;;;;18.20;99.90;;;;;;10209826;28;84981;-58
2022/05/16 06:28:20;;;;;;;;;;;18.40;99.90;;;;;;10205967;28;85317;-56
2022/05/16 06:33:22;;;;;;;;;;;18.70;99.90;;;;;;10230539;28;84123;-56
2022/05/16 06:38:25;;;;;;;;;;;19.00;1.00;;;;;;10211341;28;84905;-55
2022/05/16 06:43:27;;;;;;;;;;;19.20;1.00;;;;;;10245175;28;84955;-59
2022/05/16 06:48:28;;;;;;;;;;;19.40;1.00;;;;;;10216948;28;84270;-57
2022/05/16 06:53:30;;;;;;;;;;;19.60;1.00;;;;;;10205226;28;84872;-54
2022/05/16 06:58:30;;;;;;;;;;;19.90;1.00;;;;;;10215010;28;84795;-48
2022/05/16 07:03:32;;;;;;;;;;;20.20;1.00;;;;;;10230423;28;85007;-50
2022/05/16 07:08:33;;;;;;;;;;;20.80;99.90;;;;;;10218899;28;85324;-57
2022/05/16 07:13:34;;;;;;;;;;;21.30;1.00;;;;;;10219430;28;85028;-51
2022/05/16 07:18:35;;;;;;;;;;;21.90;99.90;;;;;;10220281;28;84693;-55
2022/05/16 07:23:35;;;;;;;;;;;22.60;2.80;;;;;;10217949;28;84821;-57
2022/05/16 07:28:37;;;;;;;;;;;23.40;99.90;;;;;;10217673;28;84779;-58
2022/05/16 07:33:37;;;;;;;;;;;23.80;69.70;;;;;;10237181;28;84354;-55
2022/05/16 07:38:38;;;;;;;;;;;23.90;99.90;;;;;;10255073;28;84957;-47
2022/05/16 07:43:38;;;;;;;;;;;23.80;99.90;;;;;;10253642;28;84886;-56
2022/05/16 07:48:39;;;;;;;;;;;23.70;99.90;;;;;;10225803;28;85039;-56
2022/05/16 07:53:40;;;;;;;;;;;23.50;99.90;;;;;;10223470;28;84748;-58
2022/05/16 07:58:41;;;;;;;;;;;23.30;1.00;;;;;;10232720;28;85092;-58
2022/05/16 08:03:41;;;;;;;;;;;22.90;99.90;;;;;;10231944;28;84178;-56
2022/05/16 08:14:02;;;;;;;;;;;22.60;94.70;;;;;;10237843;28;84116;-52
2022/05/16 08:19:03;;;;;;;;;;;22.10;1.00;;;;;;10221642;28;84981;-50
2022/05/16 08:24:07;;;;;;;;;;;22.20;99.90;;;;;;10240239;28;84881;-49
2022/05/16 08:29:08;;;;;;;;;;;22.20;1.00;;;;;;10248980;28;85369;-50
2022/05/16 08:34:09;;;;;;;;;;;22.30;1.00;;;;;;10250398;28;84946;-48
2022/05/16 08:44:35;;;;;;;;;;;22.70;1.00;;;;;;10231594;28;86921;-52
2022/05/16 08:49:38;;;;;;;;;;;23.30;1.00;;;;;;10218471;28;86347;-54
2022/05/16 08:54:42;;;;;;;;;;;23.80;99.90;;;;;;10224097;28;86258;-51
2022/05/16 08:59:47;;;;;;;;;;;24.40;99.90;;;;;;10233499;28;84995;-50
2022/05/16 09:04:52;;;;;;;;;;;25.80;1.00;;;;;;10208165;28;84808;-52
2022/05/16 09:10:00;;;;;;;;;;;26.60;1.00;;;;;;10245814;28;84928;-52
2022/05/16 09:15:12;;;;;;;;;;;26.20;99.90;;;;;;10218473;28;85189;-55
2022/05/16 09:20:25;;;;;;;;;;;25.80;1.00;;;;;;10195732;28;84195;-51
2022/05/16 09:25:32;;;;;;;;;;;25.40;1.00;;;;;;10247982;28;85057;-51
2022/05/16 09:30:32;;;;;;;;;;;26.60;99.90;;;;;;10232854;28;84908;-56
2022/05/16 09:35:42;;;;;;;;;;;27.20;99.90;;;;;;10220659;28;84320;-53
2022/05/16 09:40:53;;;;;;;;;;;27.60;1.00;;;;;;10227700;28;84850;-53
2022/05/16 09:45:58;;;;;;;;;;;27.70;1.00;;;;;;10210002;28;84971;-55
2022/05/16 09:51:00;;;;;;;;;;;28.60;1.00;;;;;;10203519;28;84833;-49
2022/05/16 09:56:21;;;;;;;;;;;28.50;1.00;;;;;;10206499;28;84864;-47
2022/05/16 10:01:38;;;;;;;;;;;28.10;1.00;;;;;;10217682;28;86954;-47
2022/05/16 10:06:43;;;;;;;;;;;28.40;1.00;;;;;;10230871;28;85217;-57
2022/05/16 10:11:50;;;;;;;;;;;28.20;99.90;;;;;;10189140;28;85837;-56
2022/05/16 10:16:53;;;;;;;;;;;27.90;99.90;;;;;;10206670;28;84870;-57
2022/05/16 10:22:02;;;;;;;;;;;28.30;99.90;;;;;;10213166;28;85739;-56
2022/05/16 10:27:06;;;;;;;;;;;28.40;99.90;;;;;;10224482;28;84270;-59
2022/05/16 10:37:32;;;;;;;;;;;27.50;99.90;;;;;;10215789;28;84973;-60
2022/05/16 10:42:38;;;;;;;;;;;27.40;1.00;;;;;;10202490;28;85981;-57
2022/05/16 10:53:10;;;;;;;;;;;26.80;1.00;;;;;;10189176;28;84650;-52
2022/05/16 10:58:29;;;;;;;;;;;26.80;1.00;;;;;;10171499;28;84993;-51
2022/05/16 11:03:33;;;;;;;;;;;26.70;1.00;;;;;;10177756;28;85309;-53
2022/05/16 11:08:47;;;;;;;;;;;26.70;1.00;;;;;;10166340;28;84861;-53
2022/05/16 11:13:51;;;;;;;;;;;26.60;1.00;;;;;;10163097;28;84943;-51
2022/05/16 11:19:13;;;;;;;;;;;26.60;1.00;;;;;;10169226;28;84928;-50
2022/05/16 11:24:32;;;;;;;;;;;26.60;1.00;;;;;;10165900;28;84853;-53
2022/05/16 11:29:49;;;;;;;;;;;26.60;1.00;;;;;;10153927;28;84352;-53
2022/05/16 11:34:53;;;;;;;;;;;26.40;1.00;;;;;;10150797;28;84089;-56
2022/05/16 11:40:02;;;;;;;;;;;26.40;1.00;;;;;;10145421;28;84942;-57
2022/05/16 11:45:23;;;;;;;;;;;26.20;1.00;;;;;;10149590;28;85889;-56
2022/05/16 11:50:46;;;;;;;;;;;25.90;1.00;;;;;;10110580;28;85505;-54
2022/05/16 12:01:26;;;;;;;;;;;25.50;1.00;;;;;;10151625;28;84776;-58
2022/05/16 12:06:33;;;;;;;;;;;25.50;1.00;;;;;;10176185;28;85111;-60
2022/05/16 12:11:46;;;;;;;;;;;25.90;1.00;;;;;;10210311;28;84114;-59
2022/05/16 12:16:56;;;;;;;;;;;26.00;1.00;;;;;;10210663;28;85990;-59
2022/05/16 12:22:02;;;;;;;;;;;26.30;99.90;;;;;;10208425;28;84261;-59
2022/05/16 12:27:05;;;;;;;;;;;26.30;99.90;;;;;;10192434;28;86090;-59
2022/05/16 12:32:06;;;;;;;;;;;26.50;1.00;;;;;;10209002;28;84127;-57
2022/05/16 12:37:09;;;;;;;;;;;26.40;1.00;;;;;;10210447;28;84895;-57
2022/05/16 12:42:28;;;;;;;;;;;26.30;1.00;;;;;;10160488;28;85966;-58
2022/05/16 12:47:47;;;;;;;;;;;26.20;1.00;;;;;;10170930;28;84103;-59
2022/05/16 12:53:00;;;;;;;;;;;26.00;1.00;;;;;;10170358;28;84914;-58
2022/05/16 12:58:04;;;;;;;;;;;25.60;1.00;;;;;;10193734;28;84431;-58
2022/05/16 13:03:05;;;;;;;;;;;25.50;63.90;;;;;;10208753;28;84182;-58
2022/05/16 13:08:26;;;;;;;;;;;25.50;99.90;;;;;;10169903;28;85098;-59
2022/05/16 13:13:29;;;;;;;;;;;25.70;99.90;;;;;;10164127;28;84945;-59
2022/05/16 13:18:31;;;;;;;;;;;25.50;99.90;;;;;;10168704;28;84050;-58
2022/05/16 13:23:32;;;;;;;;;;;25.60;99.90;;;;;;10167989;28;84956;-59
2022/05/16 13:33:52;;;;;;;;;;;26.00;1.00;;;;;;10150105;28;84959;-59
2022/05/16 13:38:58;;;;;;;;;;;25.70;99.90;;;;;;10145680;28;85129;-59
2022/05/16 13:43:59;;;;;;;;;;;25.70;99.90;;;;;;10151029;28;84278;-58
2022/05/16 13:49:04;;;;;;;;;;;25.70;1.00;;;;;;10149111;28;84438;-59
2022/05/16 13:54:05;;;;;;;;;;;25.70;1.00;;;;;;10146413;28;84234;-60
2022/05/16 13:59:06;;;;;;;;;;;25.50;1.00;;;;;;10151203;28;84808;-54
2022/05/16 14:04:13;;;;;;;;;;;25.50;1.00;;;;;;10134433;28;86359;-54
2022/05/16 14:09:19;;;;;;;;;;;25.40;99.90;;;;;;10131000;28;84759;-56
2022/05/16 14:14:22;;;;;;;;;;;25.30;99.90;;;;;;10138267;28;84092;-54
2022/05/16 14:19:48;;;;;;;;;;;25.20;1.00;;;;;;10182093;28;86281;-57
2022/05/16 14:24:50;;;;;;;;;;;25.10;99.90;;;;;;10144401;28;84187;-57
2022/05/16 14:29:58;;;;;;;;;;;25.00;1.00;;;;;;10146373;28;84970;-57
2022/05/16 14:35:01;;;;;;;;;;;24.90;99.90;;;;;;10148806;28;84211;-59
2022/05/16 14:40:02;;;;;;;;;;;24.70;99.90;;;;;;10145767;28;83993;-56
2022/05/16 14:45:02;;;;;;;;;;;24.40;99.90;;;;;;10146952;28;84270;-57
2022/05/16 14:50:03;;;;;;;;;;;24.10;1.00;;;;;;10147055;28;85016;-56
2022/05/16 14:55:06;;;;;;;;;;;23.70;1.00;;;;;;10146531;28;84796;-56
2022/05/16 15:04:02;;;;;;;;;;;23.60;1.00;;;;;;10144238;28;84930;-54
2022/05/16 15:05:30;;;;;;;;;;;23.40;1.00;;;;;;10147446;28;84886;-58
2022/05/16 15:10:30;;;;;;;;;;;23.20;1.00;;;;;;10146184;28;84751;-57
2022/05/16 15:15:31;;;;;;;;;;;23.00;1.00;;;;;;10144407;28;84878;-55
2022/05/16 15:20:31;;;;;;;;;;;22.80;1.00;;;;;;10153124;28;84001;-55
2022/05/16 15:25:33;;;;;;;;;;;22.60;1.00;;;;;;10153878;28;84539;-54
2022/05/16 15:30:34;;;;;;;;;;;22.50;1.00;;;;;;10150323;28;84832;-56
2022/05/16 15:35:35;;;;;;;;;;;22.50;1.00;;;;;;10155958;28;85095;-60
2022/05/16 15:40:37;;;;;;;;;;;22.30;1.00;;;;;;10151938;28;84312;-57
2022/05/16 15:45:39;;;;;;;;;;;22.20;1.00;;;;;;10155676;28;84848;-56
2022/05/16 15:50:40;;;;;;;;;;;22.10;1.00;;;;;;10149808;28;85335;-55
2022/05/16 15:55:41;;;;;;;;;;;21.80;1.00;;;;;;10153067;28;84055;-58
2022/05/16 16:00:42;;;;;;;;;;;21.40;50.20;;;;;;10153523;28;84027;-56
2022/05/16 16:11:02;;;;;;;;;;;21.10;99.90;;;;;;10151162;28;84974;-56
2022/05/16 16:16:08;;;;;;;;;;;20.90;99.90;;;;;;10146025;28;84136;-57
2022/05/16 16:21:09;;;;;;;;;;;20.90;99.90;;;;;;10210927;28;85122;-57
2022/05/16 16:26:10;;;;;;;;;;;20.80;99.90;;;;;;10211465;28;84472;-56
2022/05/16 16:31:14;;;;;;;;;;;20.70;99.90;;;;;;10198264;28;84067;-60
2022/05/16 16:36:15;;;;;;;;;;;20.70;99.90;;;;;;10171966;28;84626;-58
2022/05/16 16:41:16;;;;;;;;;;;20.60;99.90;;;;;;10175451;28;84234;-55
2022/05/16 16:46:23;;;;;;;;;;;20.40;99.90;;;;;;10165257;28;84187;-55
2022/05/16 17:02:11;;;;;;;;;;;20.10;99.90;;;;;;10197655;28;84967;-64
2022/05/16 17:07:12;;;;;;;;;;;19.90;99.90;;;;;;10205689;28;84897;-63
2022/05/16 17:12:12;;;;;;;;;;;20.10;99.90;;;;;;10204822;28;84752;-57
2022/05/16 17:17:13;;;;;;;;;;;20.00;99.90;;;;;;10147740;28;87289;-58
2022/05/16 17:22:15;;;;;;;;;;;19.90;99.90;;;;;;10152648;28;84959;-55
2022/05/16 17:27:16;;;;;;;;;;;19.90;99.90;;;;;;10144349;28;84166;-56
2022/05/16 17:32:16;;;;;;;;;;;19.90;99.90;;;;;;10142514;28;85238;-53
2022/05/16 17:37:17;;;;;;;;;;;19.80;99.90;;;;;;10142388;28;84089;-57
2022/05/16 17:42:17;;;;;;;;;;;19.70;99.90;;;;;;10145427;28;84256;-58
2022/05/16 17:47:18;;;;;;;;;;;19.50;99.90;;;;;;10128156;28;87834;-59
2022/05/16 17:52:20;;;;;;;;;;;19.50;99.90;;;;;;10142640;28;85619;-58
2022/05/16 17:57:23;;;;;;;;;;;19.50;99.90;;;;;;10285368;22;84285;-52
2022/05/16 18:02:25;;;;;;;;;;;19.50;99.90;;;;;;10286417;28;84735;-53
2022/05/16 18:07:26;;;;;;;;;;;19.50;99.90;;;;;;10284506;28;84783;-54
2022/05/16 18:17:46;;;;;;;;;;;19.40;99.90;;;;;;10283318;28;84977;-55
2022/05/16 18:22:47;;;;;;;;;;;19.50;99.90;;;;;;10268499;28;86918;-53
2022/05/16 18:27:48;;;;;;;;;;;19.40;99.90;;;;;;10279339;28;84837;-51
2022/05/16 18:32:50;;;;;;;;;;;19.50;99.90;;;;;;10279212;28;84381;-53
2022/05/16 18:37:51;;;;;;;;;;;19.50;99.90;;;;;;10279942;28;84284;-54
2022/05/16 18:53:34;;;;;;;;;;;19.40;99.90;;;;;;10266359;28;86423;-55
2022/05/16 18:58:35;;;;;;;;;;;19.40;99.90;;;;;;10262525;28;85880;-51
2022/05/16 19:03:36;;;;;;;;;;;19.30;99.90;;;;;;10257510;28;85990;-50
2022/05/16 19:08:37;;;;;;;;;;;19.10;99.90;;;;;;10260942;28;84324;-50
2022/05/16 19:13:38;;;;;;;;;;;19.10;99.90;;;;;;10278274;28;84297;-48
2022/05/16 19:18:40;;;;;;;;;;;19.10;99.90;;;;;;10271783;28;85162;-52
2022/05/16 19:23:40;;;;;;;;;;;19.10;99.90;;;;;;10250974;28;84577;-50
2022/05/16 19:34:01;;;;;;;;;;;18.90;99.90;;;;;;10277320;28;84866;-56
2022/05/16 19:39:03;;;;;;;;;;;18.90;99.90;;;;;;10282878;28;84289;-57
2022/05/16 19:44:04;;;;;;;;;;;18.90;99.90;;;;;;10258673;28;87032;-51
2022/05/16 19:49:05;;;;;;;;;;;18.90;99.90;;;;;;10268960;28;84380;-52
2022/05/16 19:54:06;;;;;;;;;;;18.70;99.90;;;;;;10284302;28;84251;-49
2022/05/16 19:59:06;;;;;;;;;;;18.70;99.90;;;;;;10261286;28;85138;-50
2022/05/16 20:04:07;;;;;;;;;;;18.60;99.90;;;;;;10269387;28;84963;-55
2022/05/16 20:09:10;;;;;;;;;;;18.40;99.90;;;;;;10279987;28;85358;-57
2022/05/16 20:14:11;;;;;;;;;;;18.40;99.90;;;;;;10253020;28;86004;-52
2022/05/16 20:19:14;;;;;;;;;;;18.30;99.90;;;;;;10283025;28;84402;-48
2022/05/16 20:29:35;;;;;;;;;;;18.10;99.90;;;;;;10271771;28;84901;-50
2022/05/16 20:34:36;;;;;;;;;;;18.00;99.90;;;;;;10275049;28;85173;-54
2022/05/16 20:39:36;;;;;;;;;;;18.00;99.90;;;;;;10281531;28;84539;-47
2022/05/16 20:44:37;;;;;;;;;;;17.90;99.90;;;;;;10248484;28;86746;-49
2022/05/16 20:49:38;;;;;;;;;;;17.80;99.90;;;;;;10281376;28;84203;-53
2022/05/16 20:54:39;;;;;;;;;;;17.70;99.90;;;;;;10265569;28;84778;-50
2022/05/16 20:59:39;;;;;;;;;;;17.60;99.90;;;;;;10253288;28;84718;-49
2022/05/16 21:04:41;;;;;;;;;;;17.50;99.90;;;;;;10271922;28;84537;-49
2022/05/16 21:09:41;;;;;;;;;;;17.50;99.90;;;;;;10258246;28;84878;-54
2022/05/16 21:14:42;;;;;;;;;;;17.50;99.90;;;;;;10274140;28;86440;-51
2022/05/16 21:19:42;;;;;;;;;;;17.40;99.90;;;;;;10269832;28;85975;-50
2022/05/16 21:24:43;;;;;;;;;;;17.30;99.90;;;;;;10289544;28;84544;-50
2022/05/16 21:29:43;;;;;;;;;;;17.20;99.90;;;;;;10257140;28;87180;-50
2022/05/16 21:34:44;;;;;;;;;;;17.10;99.90;;;;;;10248758;28;84863;-51
2022/05/16 21:39:44;;;;;;;;;;;17.10;99.90;;;;;;10243679;28;87002;-53
2022/05/16 21:50:04;;;;;;;;;;;16.90;99.90;;;;;;10272787;28;85005;-51
2022/05/16 21:55:05;;;;;;;;;;;16.80;99.90;;;;;;10248566;28;85467;-51
2022/05/16 22:00:12;;;;;;;;;;;16.70;99.90;;;;;;10263423;28;84177;-49
2022/05/16 22:05:13;;;;;;;;;;;16.60;99.90;;;;;;10288647;28;84720;-49
2022/05/16 22:10:13;;;;;;;;;;;16.50;99.90;;;;;;10272024;28;84706;-56
2022/05/16 22:15:15;;;;;;;;;;;16.50;99.90;;;;;;10248387;28;84042;-54
2022/05/16 22:20:16;;;;;;;;;;;16.40;99.90;;;;;;10276990;28;84303;-49
2022/05/16 22:25:18;;;;;;;;;;;16.30;99.90;;;;;;10288248;28;84231;-53
2022/05/16 22:30:18;;;;;;;;;;;16.30;99.90;;;;;;10239016;28;85043;-49
2022/05/16 22:35:21;;;;;;;;;;;16.20;99.90;;;;;;10246569;28;84103;-52
2022/05/16 22:40:23;;;;;;;;;;;16.20;99.90;;;;;;10276786;28;84186;-56
2022/05/16 22:45:23;;;;;;;;;;;16.10;99.90;;;;;;10288045;28;84667;-56
2022/05/16 22:50:25;;;;;;;;;;;16.10;99.90;;;;;;10256849;28;84316;-55
2022/05/16 22:55:26;;;;;;;;;;;16.00;99.90;;;;;;10246878;28;84906;-57
2022/05/16 23:00:28;;;;;;;;;;;16.00;99.90;;;;;;10260548;28;84137;-52
2022/05/16 23:05:29;;;;;;;;;;;15.90;99.90;;;;;;10253733;28;86236;-54
2022/05/16 23:10:31;;;;;;;;;;;15.90;99.90;;;;;;10256564;28;84581;-53
2022/05/16 23:15:33;;;;;;;;;;;15.80;99.90;;;;;;10229334;28;84871;-54
2022/05/16 23:20:33;;;;;;;;;;;15.70;99.90;;;;;;10273608;28;84815;-53
2022/05/16 23:25:34;;;;;;;;;;;15.80;99.90;;;;;;10286732;28;84687;-50
2022/05/16 23:30:38;;;;;;;;;;;15.80;99.90;;;;;;10265751;28;84416;-50
2022/05/16 23:36:12;;;;;;;;;;;15.70;99.90;;;;;;10227223;28;84489;-49
2022/05/16 23:41:00;;;;;;;;;;;15.60;99.90;;;;;;10269573;28;84214;-50
2022/05/16 23:46:00;;;;;;;;;;;15.50;99.90;;;;;;10292501;28;84833;-49
2022/05/16 23:51:02;;;;;;;;;;;15.50;99.90;;;;;;10260102;28;84978;-52
2022/05/16 23:56:03;;;;;;;;;;;15.40;99.90;;;;;;10270724;22;84823;-52
